createdAt,value
2017-09-08T00:02:15.479Z,79.20
2017-09-08T00:04:43.800Z,79.10
2017-09-08T00:07:13.084Z,79.10
2017-09-08T00:09:41.399Z,79.00
2017-09-08T00:12:09.739Z,78.90
2017-09-08T00:14:38.076Z,78.90
2017-09-08T00:17:06.416Z,78.90
2017-09-08T00:19:34.765Z,79.60
2017-09-08T00:22:03.084Z,78.80
2017-09-08T00:24:31.446Z,78.70
2017-09-08T00:26:59.769Z,78.50
2017-09-08T00:29:28.116Z,79.30
2017-09-08T00:31:56.471Z,78.30
2017-09-08T00:34:24.815Z,78.30
2017-09-08T00:36:53.145Z,78.20
2017-09-08T00:39:21.507Z,78.10
2017-09-08T00:41:49.831Z,78.00
2017-09-08T00:44:17.415Z,78.00
2017-09-08T00:46:46.168Z,78.10
2017-09-08T00:49:14.487Z,78.10
2017-09-08T00:51:42.823Z,78.10
2017-09-08T00:54:11.144Z,78.10
2017-09-08T00:56:39.482Z,78.20
2017-09-08T00:59:07.795Z,78.10
2017-09-08T01:01:36.145Z,78.00
2017-09-08T01:04:04.460Z,78.10
2017-09-08T01:06:32.799Z,77.90
2017-09-08T01:09:01.115Z,78.00
2017-09-08T01:11:29.457Z,78.00
2017-09-08T01:13:57.776Z,78.10
2017-09-08T01:16:26.092Z,78.00
2017-09-08T01:18:54.428Z,77.90
2017-09-08T01:21:22.773Z,78.00
2017-09-08T01:23:51.117Z,78.20
2017-09-08T01:26:19.451Z,78.20
2017-09-08T01:28:47.795Z,78.20
2017-09-08T01:31:16.111Z,78.30
2017-09-08T01:33:44.447Z,78.10
2017-09-08T01:36:12.763Z,78.10
2017-09-08T01:38:41.117Z,78.10
2017-09-08T01:41:09.512Z,78.00
2017-09-08T01:43:37.838Z,78.10
2017-09-08T01:46:06.188Z,78.10
2017-09-08T01:48:34.509Z,78.00
2017-09-08T01:51:02.849Z,78.40
2017-09-08T01:53:31.162Z,77.80
2017-09-08T01:55:59.500Z,77.80
2017-09-08T01:58:27.822Z,77.70
2017-09-08T02:00:56.155Z,77.60
2017-09-08T02:03:24.476Z,77.60
2017-09-08T02:05:52.824Z,77.40
2017-09-08T02:08:21.143Z,77.20
2017-09-08T02:10:49.459Z,77.30
2017-09-08T02:13:17.797Z,77.10
2017-09-08T02:15:46.119Z,77.10
2017-09-08T02:18:14.456Z,76.90
2017-09-08T02:20:42.788Z,76.80
2017-09-08T02:23:11.128Z,76.80
2017-09-08T02:25:39.446Z,76.80
2017-09-08T02:28:07.789Z,77.00
2017-09-08T02:30:36.105Z,77.00
2017-09-08T02:33:04.445Z,77.00
2017-09-08T02:35:32.004Z,77.00
2017-09-08T02:38:00.364Z,77.10
2017-09-08T02:40:28.683Z,77.20
2017-09-08T02:42:56.995Z,77.30
2017-09-08T02:45:25.438Z,77.40
2017-09-08T02:47:53.772Z,77.30
2017-09-08T02:50:22.107Z,77.50
2017-09-08T02:52:50.424Z,77.60
2017-09-08T02:55:18.764Z,77.60
2017-09-08T02:57:47.087Z,77.80
2017-09-08T03:00:15.424Z,78.00
2017-09-08T03:02:43.743Z,78.00
2017-09-08T03:05:12.100Z,78.20
2017-09-08T03:07:40.411Z,78.30
2017-09-08T03:10:08.728Z,78.20
2017-09-08T03:12:37.075Z,78.40
2017-09-08T03:15:05.392Z,78.50
2017-09-08T03:17:33.975Z,78.50
2017-09-08T03:20:02.305Z,78.40
2017-09-08T03:22:30.644Z,78.30
2017-09-08T03:24:58.955Z,78.40
2017-09-08T03:27:27.295Z,78.20
2017-09-08T03:29:55.609Z,78.40
2017-09-08T03:32:23.952Z,78.30
2017-09-08T03:34:52.270Z,78.50
2017-09-08T03:37:20.592Z,78.70
2017-09-08T03:39:48.944Z,78.60
2017-09-08T03:42:17.260Z,78.60
2017-09-08T03:44:45.602Z,78.70
2017-09-08T03:47:13.920Z,78.80
2017-09-08T03:49:42.256Z,78.80
2017-09-08T03:52:10.575Z,78.80
2017-09-08T03:54:38.916Z,78.80
2017-09-08T03:57:07.227Z,78.80
2017-09-08T03:59:35.571Z,78.80
2017-09-08T04:02:03.895Z,78.60
2017-09-08T04:04:32.240Z,78.60
2017-09-08T04:07:00.563Z,78.60
2017-09-08T04:09:28.881Z,78.70
2017-09-08T04:11:57.220Z,78.70
2017-09-08T04:14:25.526Z,78.70
2017-09-08T04:16:53.859Z,78.70
2017-09-08T04:19:22.182Z,78.80
2017-09-08T04:21:49.756Z,78.80
2017-09-08T04:24:18.074Z,78.80
2017-09-08T04:26:47.122Z,78.80
2017-09-08T04:29:15.444Z,78.80
2017-09-08T04:31:43.806Z,78.80
2017-09-08T04:34:12.117Z,79.10
2017-09-08T04:36:39.695Z,79.00
2017-09-08T04:39:08.032Z,79.00
2017-09-08T04:41:36.365Z,79.00
2017-09-08T04:44:03.944Z,79.00
2017-09-08T04:46:32.280Z,79.00
2017-09-08T04:49:00.616Z,79.00
2017-09-08T04:51:29.001Z,78.80
2017-09-08T04:53:57.344Z,78.90
2017-09-08T04:56:25.660Z,78.80
2017-09-08T04:58:54.017Z,79.60
2017-09-08T05:01:22.344Z,78.80
2017-09-08T05:03:50.659Z,78.80
2017-09-08T05:06:19.025Z,78.70
2017-09-08T05:08:47.343Z,78.60
2017-09-08T05:11:15.677Z,78.50
2017-09-08T05:13:44.004Z,78.50
2017-09-08T05:16:12.340Z,78.20
2017-09-08T05:18:40.660Z,78.20
2017-09-08T05:21:08.995Z,78.20
2017-09-08T05:23:38.021Z,78.30
2017-09-08T05:26:06.412Z,78.20
2017-09-08T05:28:35.231Z,78.20
2017-09-08T05:31:03.583Z,77.90
2017-09-08T05:33:31.916Z,77.60
2017-09-08T05:35:59.469Z,77.60
2017-09-08T05:38:27.843Z,77.20
2017-09-08T05:40:56.161Z,77.20
2017-09-08T05:43:24.544Z,76.90
2017-09-08T05:45:52.857Z,76.80
2017-09-08T05:48:21.204Z,76.80
2017-09-08T05:50:49.524Z,76.90
2017-09-08T05:53:17.850Z,76.80
2017-09-08T05:55:46.196Z,76.60
2017-09-08T05:58:14.529Z,76.50
2017-09-08T06:00:42.859Z,76.30
2017-09-08T06:03:11.211Z,76.40
2017-09-08T06:05:39.553Z,76.00
2017-09-08T06:08:07.873Z,75.60
2017-09-08T06:10:36.216Z,75.40
2017-09-08T06:13:04.532Z,75.30
2017-09-08T06:15:32.881Z,75.10
2017-09-08T06:18:01.196Z,75.20
2017-09-08T06:20:28.752Z,75.20
2017-09-08T06:22:57.117Z,75.10
2017-09-08T06:25:25.447Z,75.40
2017-09-08T06:27:53.788Z,75.00
2017-09-08T06:30:22.120Z,74.90
2017-09-08T06:32:50.464Z,74.70
2017-09-08T06:35:18.784Z,74.90
2017-09-08T06:37:47.136Z,74.80
2017-09-08T06:40:15.453Z,74.80
2017-09-08T06:42:43.855Z,74.60
2017-09-08T06:45:11.408Z,74.60
2017-09-08T06:47:39.724Z,74.30
2017-09-08T06:50:08.066Z,74.00
2017-09-08T06:52:36.405Z,73.60
2017-09-08T06:55:04.997Z,73.50
2017-09-08T06:57:33.311Z,73.50
2017-09-08T07:00:01.665Z,73.30
2017-09-08T07:02:29.986Z,73.00
2017-09-08T07:04:58.335Z,73.30
2017-09-08T07:07:26.671Z,73.50
2017-09-08T07:09:55.020Z,73.70
2017-09-08T07:12:23.335Z,73.50
2017-09-08T07:14:51.651Z,73.10
2017-09-08T07:17:20.023Z,72.80
2017-09-08T07:19:48.339Z,72.70
2017-09-08T07:22:16.672Z,72.10
2017-09-08T07:24:44.989Z,71.90
2017-09-08T07:27:13.331Z,71.30
2017-09-08T07:29:41.643Z,71.30
2017-09-08T07:32:09.992Z,71.20
2017-09-08T07:34:38.306Z,70.80
2017-09-08T07:37:06.619Z,70.50
2017-09-08T07:39:34.952Z,70.70
2017-09-08T07:42:03.267Z,70.70
2017-09-08T07:44:31.605Z,70.30
2017-09-08T07:46:59.925Z,70.00
2017-09-08T07:49:28.255Z,70.30
2017-09-08T07:51:56.600Z,70.50
2017-09-08T07:54:24.938Z,70.20
2017-09-08T07:56:53.344Z,70.00
2017-09-08T07:59:21.930Z,70.10
2017-09-08T08:01:50.263Z,69.40
2017-09-08T08:04:18.581Z,69.40
2017-09-08T08:06:47.643Z,68.90
2017-09-08T08:09:15.945Z,68.60
2017-09-08T08:11:44.282Z,67.90
2017-09-08T08:14:12.599Z,67.80
2017-09-08T08:16:40.935Z,67.60
2017-09-08T08:19:09.269Z,67.30
2017-09-08T08:21:37.609Z,67.20
2017-09-08T08:24:05.916Z,67.00
2017-09-08T08:26:33.463Z,67.00
2017-09-08T08:29:01.794Z,66.40
2017-09-08T08:31:30.107Z,66.40
2017-09-08T08:33:58.441Z,65.80
2017-09-08T08:36:25.989Z,65.60
2017-09-08T08:38:54.318Z,65.20
2017-09-08T08:41:22.629Z,65.10
2017-09-08T08:43:50.975Z,64.90
2017-09-08T08:46:19.287Z,65.00
2017-09-08T08:48:47.596Z,65.10
2017-09-08T08:51:15.919Z,64.70
2017-09-08T08:53:44.447Z,64.70
2017-09-08T08:56:12.781Z,64.70
2017-09-08T08:58:41.171Z,65.20
2017-09-08T09:01:09.511Z,64.70
2017-09-08T09:03:38.559Z,63.90
2017-09-08T09:06:06.909Z,63.60
2017-09-08T09:08:35.217Z,64.10
2017-09-08T09:11:03.530Z,64.00
2017-09-08T09:13:31.863Z,64.90
2017-09-08T09:15:59.529Z,63.90
2017-09-08T09:18:27.857Z,65.40
2017-09-08T09:20:56.172Z,65.50
2017-09-08T09:23:24.504Z,65.50
2017-09-08T09:25:52.814Z,65.90
2017-09-08T09:28:21.188Z,65.80
2017-09-08T09:30:49.616Z,65.30
2017-09-08T09:33:17.931Z,65.70
2017-09-08T09:35:46.274Z,66.00
2017-09-08T09:38:14.584Z,65.50
2017-09-08T09:40:42.922Z,65.70
2017-09-08T09:43:11.236Z,65.80
2017-09-08T09:45:39.564Z,66.10
2017-09-08T09:48:07.879Z,66.20
2017-09-08T09:50:36.227Z,66.30
2017-09-08T09:53:04.547Z,66.50
2017-09-08T09:55:32.858Z,66.60
2017-09-08T09:58:01.211Z,66.50
2017-09-08T10:00:29.568Z,66.70
2017-09-08T10:02:57.925Z,66.80
2017-09-08T10:05:26.247Z,67.60
2017-09-08T10:07:54.591Z,68.00
2017-09-08T10:10:22.896Z,68.50
2017-09-08T10:12:50.467Z,68.40
2017-09-08T10:15:18.785Z,69.10
2017-09-08T10:17:47.091Z,69.30
2017-09-08T10:20:15.416Z,69.60
2017-09-08T10:22:43.740Z,69.80
2017-09-08T10:25:12.082Z,69.70
2017-09-08T10:27:40.399Z,69.80
2017-09-08T10:30:08.738Z,70.20
2017-09-08T10:32:37.047Z,70.40
2017-09-08T10:35:05.391Z,70.50
2017-09-08T10:37:33.707Z,70.70
2017-09-08T10:40:02.121Z,70.80
2017-09-08T10:42:30.451Z,71.60
2017-09-08T10:44:58.767Z,72.20
2017-09-08T10:47:27.095Z,73.30
2017-09-08T10:49:55.413Z,74.30
2017-09-08T10:52:23.744Z,75.20
2017-09-08T10:54:51.288Z,75.20
2017-09-08T10:57:19.640Z,77.10
2017-09-08T10:59:47.948Z,77.70
2017-09-08T11:02:16.288Z,78.90
2017-09-08T11:04:44.632Z,78.00
2017-09-08T11:07:12.965Z,79.30
2017-09-08T11:09:41.300Z,78.60
2017-09-08T11:12:09.617Z,78.50
2017-09-08T11:14:37.959Z,78.40
2017-09-08T11:17:06.284Z,78.30
2017-09-08T11:19:34.635Z,78.00
2017-09-08T11:22:02.942Z,78.60
2017-09-08T11:24:31.256Z,78.50
2017-09-08T11:26:59.579Z,78.30
2017-09-08T11:29:27.896Z,78.00
2017-09-08T11:31:56.224Z,77.70
2017-09-08T11:34:30.239Z,78.10
2017-09-08T11:37:04.283Z,77.80
2017-09-08T11:39:32.593Z,77.20
2017-09-08T11:42:00.927Z,76.90
2017-09-08T11:44:29.241Z,76.70
2017-09-08T11:46:57.588Z,76.90
2017-09-08T11:49:25.895Z,76.90
2017-09-08T11:51:54.202Z,77.00
2017-09-08T11:54:22.531Z,76.80
2017-09-08T11:56:50.840Z,77.00
2017-09-08T11:59:19.170Z,77.10
2017-09-08T12:01:47.479Z,76.70
2017-09-08T12:04:15.824Z,76.80
2017-09-08T12:06:44.135Z,76.60
2017-09-08T12:09:12.435Z,76.80
2017-09-08T12:11:40.784Z,76.60
2017-09-08T12:14:08.441Z,76.60
2017-09-08T12:16:36.780Z,77.70
2017-09-08T12:19:05.102Z,77.70
2017-09-08T12:21:33.439Z,77.70
2017-09-08T12:24:01.777Z,77.70
2017-09-08T12:26:30.084Z,78.30
2017-09-08T12:28:58.415Z,78.50
2017-09-08T12:31:26.730Z,79.90
2017-09-08T12:33:55.077Z,79.70
2017-09-08T12:36:23.477Z,80.50
2017-09-08T12:38:51.807Z,81.40
2017-09-08T12:41:20.124Z,82.10
2017-09-08T12:43:48.473Z,82.70
2017-09-08T12:46:16.024Z,82.70
2017-09-08T12:48:44.332Z,83.10
2017-09-08T12:51:12.670Z,83.10
2017-09-08T12:53:40.975Z,83.40
2017-09-08T12:56:09.312Z,83.30
2017-09-08T12:58:37.624Z,83.10
2017-09-08T13:01:05.960Z,82.60
2017-09-08T13:03:34.272Z,82.60
2017-09-08T13:06:02.641Z,82.70
2017-09-08T13:08:30.951Z,81.70
2017-09-08T13:10:59.263Z,81.60
2017-09-08T13:13:27.608Z,81.70
2017-09-08T13:15:55.916Z,81.80
2017-09-08T13:18:24.268Z,81.90
2017-09-08T13:20:52.580Z,81.80
2017-09-08T13:23:20.916Z,81.70
2017-09-08T13:25:48.467Z,81.70
2017-09-08T13:28:16.837Z,82.40
2017-09-08T13:30:45.194Z,83.50
2017-09-08T13:33:13.492Z,83.40
2017-09-08T13:35:41.842Z,83.90
2017-09-08T13:38:10.150Z,84.00
2017-09-08T13:40:38.485Z,84.00
2017-09-08T13:43:06.796Z,83.50
2017-09-08T13:45:35.150Z,83.70
2017-09-08T13:48:03.465Z,83.60
2017-09-08T13:50:31.775Z,83.40
2017-09-08T13:53:00.108Z,82.70
2017-09-08T13:55:28.421Z,82.10
2017-09-08T13:57:56.952Z,82.10
2017-09-08T14:00:24.495Z,82.10
2017-09-08T14:02:52.865Z,81.90
2017-09-08T14:05:21.171Z,82.00
2017-09-08T14:07:49.544Z,81.20
2017-09-08T14:10:17.883Z,81.20
2017-09-08T14:12:46.240Z,81.50
2017-09-08T14:15:14.575Z,81.30
2017-09-08T14:17:42.892Z,80.80
2017-09-08T14:20:11.228Z,80.50
2017-09-08T14:22:39.533Z,80.90
2017-09-08T14:25:07.872Z,80.60
2017-09-08T14:27:36.183Z,80.70
2017-09-08T14:30:04.558Z,80.80
2017-09-08T14:32:32.891Z,80.90
2017-09-08T14:35:00.436Z,80.90
2017-09-08T14:37:28.811Z,81.30
2017-09-08T14:39:57.121Z,81.20
2017-09-08T14:42:25.460Z,81.50
2017-09-08T14:44:53.767Z,81.00
2017-09-08T14:47:22.180Z,81.30
2017-09-08T14:49:50.601Z,81.40
2017-09-08T14:52:18.922Z,80.70
2017-09-08T14:54:47.257Z,80.70
2017-09-08T14:57:15.560Z,80.90
2017-09-08T14:59:43.893Z,80.60
2017-09-08T15:02:12.199Z,80.80
2017-09-08T15:04:40.551Z,80.60
2017-09-08T15:07:08.912Z,81.10
2017-09-08T15:09:37.269Z,81.20
2017-09-08T15:12:05.603Z,81.30
2017-09-08T15:14:33.931Z,81.60
2017-09-08T15:17:02.259Z,81.80
2017-09-08T15:19:30.579Z,82.20
2017-09-08T15:21:58.980Z,82.70
2017-09-08T15:24:27.301Z,82.90
2017-09-08T15:26:55.687Z,83.10
2017-09-08T15:29:23.995Z,83.30
2017-09-08T15:31:52.315Z,83.80
2017-09-08T15:34:20.673Z,84.00
2017-09-08T15:36:48.976Z,84.20
2017-09-08T15:39:17.309Z,84.50
2017-09-08T15:41:45.624Z,85.00
2017-09-08T15:44:13.969Z,85.30
2017-09-08T15:46:42.290Z,85.40
2017-09-08T15:49:10.645Z,85.60
2017-09-08T15:51:39.004Z,86.00
2017-09-08T15:54:07.322Z,85.80
2017-09-08T15:56:35.673Z,85.10
2017-09-08T15:59:04.020Z,84.50
2017-09-08T16:01:32.352Z,84.10
2017-09-08T16:04:00.664Z,84.20
2017-09-08T16:06:29.008Z,84.50
2017-09-08T16:08:57.311Z,84.40
2017-09-08T16:11:25.663Z,84.50
2017-09-08T16:13:53.982Z,84.50
2017-09-08T16:16:22.295Z,84.40
2017-09-08T16:18:50.623Z,84.20
2017-09-08T16:21:18.931Z,84.10
2017-09-08T16:23:47.272Z,84.40
2017-09-08T16:26:15.587Z,84.40
2017-09-08T16:28:43.921Z,84.60
2017-09-08T16:31:11.459Z,84.60
2017-09-08T16:33:39.041Z,84.90
2017-09-08T16:36:07.356Z,85.80
2017-09-08T16:38:35.659Z,86.10
2017-09-08T16:41:04.000Z,86.30
2017-09-08T16:43:32.315Z,86.50
2017-09-08T16:46:00.647Z,86.90
2017-09-08T16:48:28.968Z,87.10
2017-09-08T16:50:57.314Z,87.40
2017-09-08T16:53:25.631Z,87.70
2017-09-08T16:55:53.939Z,87.90
2017-09-08T16:58:22.275Z,88.20
2017-09-08T17:00:50.597Z,88.30
2017-09-08T17:03:18.930Z,88.50
2017-09-08T17:05:47.248Z,88.50
2017-09-08T17:08:15.608Z,88.70
2017-09-08T17:10:43.923Z,88.70
2017-09-08T17:13:12.235Z,89.00
2017-09-08T17:15:40.564Z,89.40
2017-09-08T17:18:08.876Z,89.60
2017-09-08T17:20:37.206Z,89.70
2017-09-08T17:23:05.511Z,89.80
2017-09-08T17:25:33.942Z,89.90
2017-09-08T17:28:02.256Z,90.40
2017-09-08T17:30:30.567Z,90.00
2017-09-08T17:32:58.902Z,90.10
2017-09-08T17:35:27.216Z,90.10
2017-09-08T17:37:55.557Z,90.50
2017-09-08T17:40:23.866Z,90.20
2017-09-08T17:42:52.211Z,90.30
2017-09-08T17:45:20.529Z,90.30
2017-09-08T17:47:48.845Z,90.40
2017-09-08T17:50:17.179Z,90.50
2017-09-08T17:52:45.495Z,90.50
2017-09-08T17:55:13.851Z,90.60
2017-09-08T17:57:42.165Z,90.50
2017-09-08T18:00:10.475Z,90.50
2017-09-08T18:02:38.807Z,90.60
2017-09-08T18:05:07.118Z,90.60
2017-09-08T18:07:35.472Z,90.60
2017-09-08T18:10:03.785Z,90.60
2017-09-08T18:12:32.103Z,90.60
2017-09-08T18:15:00.440Z,90.70
2017-09-08T18:17:28.744Z,90.70
2017-09-08T18:19:57.104Z,90.60
2017-09-08T18:22:25.416Z,90.70
2017-09-08T18:24:53.732Z,90.70
2017-09-08T18:27:22.065Z,90.70
2017-09-08T18:29:50.380Z,90.60
2017-09-08T18:32:18.708Z,90.70
2017-09-08T18:34:47.024Z,90.70
2017-09-08T18:37:15.379Z,90.50
2017-09-08T18:39:43.688Z,90.50
2017-09-08T18:42:12.053Z,90.40
2017-09-08T18:44:40.400Z,90.30
2017-09-08T18:47:08.707Z,90.30
2017-09-08T18:49:37.059Z,90.40
2017-09-08T18:52:05.368Z,90.40
2017-09-08T18:54:33.724Z,90.50
2017-09-08T18:57:02.028Z,90.40
2017-09-08T18:59:30.340Z,90.40
2017-09-08T19:01:58.668Z,90.50
2017-09-08T19:04:26.976Z,90.60
2017-09-08T19:06:55.311Z,90.70
2017-09-08T19:09:23.625Z,90.70
2017-09-08T19:11:51.219Z,90.60
2017-09-08T19:14:19.528Z,90.50
2017-09-08T19:16:47.836Z,90.50
2017-09-08T19:19:16.172Z,90.50
2017-09-08T19:21:44.483Z,90.40
2017-09-08T19:24:12.836Z,90.40
2017-09-08T19:26:41.160Z,90.40
2017-09-08T19:29:09.468Z,90.50
2017-09-08T19:31:37.804Z,90.50
2017-09-08T19:34:06.111Z,90.50
2017-09-08T19:36:34.443Z,90.40
2017-09-08T19:39:02.759Z,90.50
2017-09-08T19:41:31.113Z,90.40
2017-09-08T19:43:59.427Z,90.50
2017-09-08T19:46:27.738Z,90.40
2017-09-08T19:48:56.063Z,90.40
2017-09-08T19:51:24.389Z,90.40
2017-09-08T19:53:52.726Z,90.40
2017-09-08T19:56:21.037Z,90.40
2017-09-08T19:58:49.372Z,90.40
2017-09-08T20:01:17.693Z,90.40
2017-09-08T20:03:46.004Z,90.30
2017-09-08T20:06:13.569Z,90.40
2017-09-08T20:08:41.871Z,90.60
2017-09-08T20:11:10.219Z,90.70
2017-09-08T20:13:38.534Z,90.90
2017-09-08T20:16:06.864Z,90.90
2017-09-08T20:18:35.201Z,90.90
2017-09-08T20:21:03.516Z,91.00
2017-09-08T20:23:31.856Z,91.00
2017-09-08T20:26:00.169Z,90.90
2017-09-08T20:28:28.518Z,90.90
2017-09-08T20:30:56.904Z,91.00
2017-09-08T20:33:25.211Z,91.00
2017-09-08T20:35:53.536Z,91.10
2017-09-08T20:38:21.843Z,91.10
2017-09-08T20:40:50.176Z,91.20
2017-09-08T20:43:18.492Z,91.30
2017-09-08T20:45:46.844Z,91.30
2017-09-08T20:48:15.165Z,91.40
2017-09-08T20:50:43.479Z,91.40
2017-09-08T20:53:11.817Z,91.30
2017-09-08T20:55:40.135Z,91.20
2017-09-08T20:58:08.476Z,91.10
2017-09-08T21:00:36.019Z,91.10
2017-09-08T21:03:04.344Z,90.90
2017-09-08T21:05:32.661Z,90.90
2017-09-08T21:08:01.053Z,90.80
2017-09-08T21:10:29.370Z,90.80
2017-09-08T21:12:57.675Z,91.20
2017-09-08T21:15:26.007Z,90.80
2017-09-08T21:17:54.319Z,90.80
2017-09-08T21:20:22.659Z,90.90
2017-09-08T21:22:50.972Z,90.90
2017-09-08T21:25:19.319Z,90.90
2017-09-08T21:27:47.631Z,91.00
2017-09-08T21:30:15.943Z,91.10
2017-09-08T21:32:44.278Z,91.20
2017-09-08T21:35:12.588Z,91.20
2017-09-08T21:37:40.924Z,91.30
2017-09-08T21:40:09.235Z,91.30
2017-09-08T21:42:37.585Z,91.40
2017-09-08T21:45:05.898Z,91.50
2017-09-08T21:47:34.212Z,91.40
2017-09-08T21:50:02.546Z,91.40
2017-09-08T21:52:30.858Z,91.30
2017-09-08T21:54:59.190Z,91.30
2017-09-08T21:57:27.497Z,91.30
2017-09-08T21:59:55.832Z,91.30
2017-09-08T22:02:24.145Z,91.10
2017-09-08T22:04:52.452Z,91.00
2017-09-08T22:07:20.791Z,90.90
2017-09-08T22:09:49.103Z,90.80
2017-09-08T22:12:17.432Z,90.80
2017-09-08T22:14:45.747Z,90.90
2017-09-08T22:17:14.080Z,90.90
2017-09-08T22:19:42.387Z,90.80
2017-09-08T22:22:10.693Z,90.60
2017-09-08T22:24:39.023Z,90.60
2017-09-08T22:27:07.347Z,90.40
2017-09-08T22:29:35.685Z,90.30
2017-09-08T22:32:03.994Z,90.30
2017-09-08T22:34:32.347Z,90.10
2017-09-08T22:37:00.663Z,90.20
2017-09-08T22:39:28.968Z,90.20
2017-09-08T22:41:57.304Z,90.20
2017-09-08T22:44:25.611Z,90.30
2017-09-08T22:46:53.934Z,90.30
2017-09-08T22:49:22.249Z,90.30
2017-09-08T22:51:50.587Z,90.40
2017-09-08T22:54:30.636Z,90.40
2017-09-08T22:56:59.000Z,90.50
2017-09-08T22:59:26.543Z,90.50
2017-09-08T23:01:54.855Z,90.50
2017-09-08T23:04:23.189Z,90.50
2017-09-08T23:06:51.496Z,90.40
2017-09-08T23:09:19.831Z,90.70
2017-09-08T23:11:48.144Z,90.30
2017-09-08T23:14:16.499Z,90.20
2017-09-08T23:16:44.812Z,90.00
2017-09-08T23:19:13.123Z,90.00
2017-09-08T23:21:41.448Z,89.80
2017-09-08T23:24:09.780Z,89.60
2017-09-08T23:26:38.124Z,89.70
2017-09-08T23:29:06.468Z,89.90
2017-09-08T23:31:34.804Z,90.00
2017-09-08T23:34:03.115Z,90.30
2017-09-08T23:36:31.431Z,90.00
2017-09-08T23:38:59.768Z,89.90
2017-09-08T23:41:28.076Z,90.00
2017-09-08T23:43:56.411Z,90.00
2017-09-08T23:46:24.719Z,90.10
2017-09-08T23:48:53.073Z,90.00
2017-09-08T23:51:21.385Z,90.00
2017-09-08T23:53:49.699Z,89.80
2017-09-08T23:56:18.032Z,89.70
2017-09-08T23:58:46.343Z,89.60
